Time;durP1;ratioP1;P1;durP2;ratioP2;P2;SDS_P1;SDS_P2;PMS_P1;PMS_P2;Temp;Humidity;BMP_temperature;BMP_pressure;BME280_temperature;BME280_humidity;BME280_pressure;Samples;Min_cycle;Max_cycle;Signal;HPM_P1;HPM_P2
2022/10/15 00:00:51;;;;;;;39.42;27.30;;;;;;;8.38;88.32;99244.08;1779767;79;21460;-60
2022/10/15 00:03:19;;;;;;;37.80;27.50;;;;;;;8.39;88.42;99243.19;1779608;79;20918;-60
2022/10/15 00:05:46;;;;;;;33.42;26.87;;;;;;;8.43;88.67;99242.12;1777859;79;20902;-60
2022/10/15 00:08:12;;;;;;;33.33;26.77;;;;;;;8.48;88.67;99247.96;1780388;80;20899;-60
2022/10/15 00:10:39;;;;;;;36.60;27.80;;;;;;;8.52;88.79;99248.22;1777925;80;20926;-60
2022/10/15 00:13:06;;;;;;;35.00;28.20;;;;;;;8.58;88.88;99237.98;1777553;80;20918;-61
2022/10/15 00:15:37;;;;;;;37.33;27.62;;;;;;;8.64;88.87;99242.89;1779487;80;21041;-61
2022/10/15 00:18:04;;;;;;;38.17;28.45;;;;;;;8.68;88.86;99242.69;1751733;80;20926;-60
2022/10/15 00:20:30;;;;;;;40.27;28.60;;;;;;;8.71;88.86;99242.54;1774362;80;20875;-61
2022/10/15 00:22:57;;;;;;;35.70;27.67;;;;;;;8.73;88.98;99235.48;1780057;80;20933;-60
2022/10/15 00:25:24;;;;;;;33.50;27.45;;;;;;;8.80;89.27;99233.45;1781344;78;20974;-61
2022/10/15 00:27:50;;;;;;;39.73;26.87;;;;;;;8.87;89.37;99232.69;1780391;80;21863;-60
2022/10/15 00:30:17;;;;;;;34.67;26.20;;;;;;;8.94;89.51;99232.79;1780266;80;20870;-60
2022/10/15 00:32:44;;;;;;;33.30;25.45;;;;;;;9.01;89.52;99234.16;1783498;80;20979;-60
2022/10/15 00:35:11;;;;;;;37.67;27.67;;;;;;;9.05;89.53;99238.32;1783307;79;20922;-61
2022/10/15 00:37:37;;;;;;;34.65;27.40;;;;;;;9.08;89.62;99235.56;1780883;80;20882;-61
2022/10/15 00:40:07;;;;;;;36.53;27.15;;;;;;;9.10;89.78;99233.73;1778472;80;21123;-60
2022/10/15 00:42:33;;;;;;;37.13;26.93;;;;;;;9.14;89.74;99237.86;1778223;79;20887;-60
2022/10/15 00:45:00;;;;;;;40.43;29.55;;;;;;;9.16;89.72;99235.20;1781443;79;20945;-61
2022/10/15 00:47:38;;;;;;;34.93;26.07;;;;;;;9.18;89.75;99240.69;1776185;79;21486;-61
2022/10/15 00:50:16;;;;;;;34.70;26.35;;;;;;;9.19;89.73;99237.19;1760215;81;20977;-61
2022/10/15 00:52:48;;;;;;;;;;;;;;;9.23;89.73;99234.42;1763983;80;22346;-60
2022/10/15 00:55:20;;;;;;;38.17;27.02;;;;;;;9.23;89.83;99234.42;1765224;81;20475;-60
2022/10/15 00:57:49;;;;;;;36.85;27.13;;;;;;;9.24;89.82;99225.67;1760914;81;21444;-60
2022/10/15 01:00:17;;;;;;;40.12;30.20;;;;;;;9.24;89.83;99226.98;1774627;80;20942;-60
2022/10/15 01:02:45;;;;;;;115.05;80.12;;;;;;;9.25;89.89;99215.66;1754916;81;21007;-61
2022/10/15 01:05:12;;;;;;;;;;;;;;;9.27;89.91;99216.41;1781642;80;21031;-60
2022/10/15 01:07:39;;;;;;;44.05;28.87;;;;;;;9.28;90.07;99217.64;1783936;80;20096;-61
2022/10/15 01:10:08;;;;;;;35.77;27.23;;;;;;;9.30;90.04;99212.34;1757110;79;20918;-60
2022/10/15 01:12:52;;;;;;;32.67;25.50;;;;;;;9.31;90.09;99207.53;1755048;79;21476;-60
2022/10/15 01:15:32;;;;;;;37.08;26.62;;;;;;;9.32;90.10;99206.59;1787659;78;20859;-60
2022/10/15 01:18:16;;;;;;;36.03;27.58;;;;;;;9.34;90.12;99207.38;1819549;77;22029;-61
2022/10/15 01:21:01;;;;;;;32.58;25.50;;;;;;;9.35;90.17;99209.05;1820556;78;20900;-61
2022/10/15 01:24:05;;;;;;;33.00;27.02;;;;;;;9.37;90.20;99204.61;1821064;77;20958;-60
2022/10/15 01:26:57;;;;;;;35.17;25.70;;;;;;;9.38;90.24;99193.26;1810351;78;20923;-60
2022/10/15 01:29:41;;;;;;;33.75;26.40;;;;;;;9.38;90.28;99192.83;1732304;81;21523;-60
2022/10/15 01:32:24;;;;;;;39.15;26.95;;;;;;;9.41;90.42;99190.52;1740882;80;21107;-60
2022/10/15 01:35:02;;;;;;;32.53;26.42;;;;;;;9.43;90.38;99188.66;1730853;81;20939;-61
2022/10/15 01:37:49;;;;;;;36.23;27.77;;;;;;;9.43;90.44;99185.22;1738973;81;20963;-60
2022/10/15 01:40:39;;;;;;;32.55;25.90;;;;;;;9.43;90.46;99191.27;1733652;81;21557;-61
2022/10/15 01:43:12;;;;;;;38.78;26.40;;;;;;;9.46;90.48;99178.55;1731929;81;20980;-60
2022/10/15 01:45:47;;;;;;;31.60;26.35;;;;;;;9.46;90.53;99181.98;1742970;81;21233;-60
2022/10/15 01:48:16;;;;;;;35.52;26.77;;;;;;;9.48;90.53;99191.05;1732578;81;21552;-60
2022/10/15 01:50:50;;;;;;;34.63;27.10;;;;;;;9.46;90.53;99181.98;1729511;81;21003;-60
2022/10/15 01:53:25;;;;;;;34.92;27.37;;;;;;;9.46;90.59;99181.15;1720015;81;20912;-61
2022/10/15 01:55:50;;;;;;;36.13;27.80;;;;;;;9.46;90.64;99179.84;1732618;81;20947;-60
2022/10/15 01:58:17;;;;;;;37.78;27.27;;;;;;;9.46;90.68;99180.69;1733599;81;22061;-61
2022/10/15 02:00:44;;;;;;;38.15;27.20;;;;;;;9.45;90.74;99177.70;1735793;81;21480;-60
2022/10/15 02:03:11;;;;;;;;;;;;;;;9.46;90.79;99178.08;1742981;81;20971;-61
2022/10/15 02:05:49;;;;;;;37.15;28.25;;;;;;;9.45;90.84;99171.20;1749154;78;20086;-60
2022/10/15 02:08:38;;;;;;;33.30;25.77;;;;;;;9.46;90.88;99179.38;1812260;78;21430;-61
2022/10/15 02:11:16;;;;;;;35.48;26.57;;;;;;;9.46;90.85;99177.24;1759026;81;21065;-60
2022/10/15 02:14:12;;;;;;;37.88;27.13;;;;;;;9.43;90.86;99175.63;1775574;80;20974;-61
2022/10/15 02:17:10;;;;;;;42.27;28.55;;;;;;;9.43;90.84;99173.03;1761608;81;20922;-61
2022/10/15 02:19:57;;;;;;;37.30;28.47;;;;;;;9.45;90.87;99163.37;1753273;81;20914;-61
2022/10/15 02:22:31;;;;;;;34.37;26.57;;;;;;;9.44;90.85;99168.22;1760108;79;20973;-61
2022/10/15 02:25:03;;;;;;;38.65;27.17;;;;;;;9.43;90.91;99163.91;1767701;81;21110;-60
2022/10/15 02:27:32;;;;;;;35.17;27.25;;;;;;;9.41;90.86;99167.08;1754937;81;20949;-61
2022/10/15 02:30:06;;;;;;;38.50;26.42;;;;;;;9.38;90.89;99160.25;1766101;81;20895;-61
2022/10/15 02:32:37;;;;;;;36.05;28.17;;;;;;;9.36;90.97;99159.95;1762928;79;20894;-61
2022/10/15 02:35:07;;;;;;;34.23;26.85;;;;;;;9.35;91.07;99162.16;1785105;78;20957;-61
2022/10/15 02:37:34;;;;;;;35.48;27.52;;;;;;;9.36;91.12;99162.09;1766742;80;21035;-61
2022/10/15 02:40:01;;;;;;;33.63;26.45;;;;;;;9.36;91.18;99157.34;1760800;79;21009;-61
2022/10/15 02:42:28;;;;;;;32.53;26.37;;;;;;;9.34;91.20;99157.88;1768019;79;20954;-61
2022/10/15 02:44:54;;;;;;;31.23;26.43;;;;;;;9.35;91.25;99154.33;1763193;81;21436;-61
2022/10/15 02:47:21;;;;;;;34.83;26.40;;;;;;;9.35;91.28;99154.33;1766485;79;20962;-61
2022/10/15 02:49:48;;;;;;;34.50;26.95;;;;;;;9.35;91.29;99151.73;1763348;80;21054;-61
2022/10/15 02:52:14;;;;;;;35.93;27.23;;;;;;;9.34;91.34;99152.66;1756375;79;20981;-60
2022/10/15 02:54:41;;;;;;;42.20;29.72;;;;;;;9.35;91.38;99149.13;1761064;80;21559;-61
2022/10/15 02:57:07;;;;;;;33.13;26.90;;;;;;;9.34;91.44;99142.23;1760234;80;20977;-60
2022/10/15 02:59:34;;;;;;;34.40;27.10;;;;;;;9.35;91.49;99146.52;1760233;80;21011;-61
2022/10/15 03:02:01;;;;;;;33.50;26.25;;;;;;;9.35;91.52;99138.70;1753694;81;21167;-60
2022/10/15 03:04:27;;;;;;;32.67;24.90;;;;;;;9.33;91.48;99136.66;1765796;81;20890;-60
2022/10/15 03:06:54;;;;;;;39.40;27.00;;;;;;;9.32;91.50;99136.26;1761088;79;20914;-60
2022/10/15 03:09:21;;;;;;;35.63;25.93;;;;;;;9.29;91.58;99137.72;1764206;81;21203;-61
2022/10/15 03:11:48;;;;;;;34.10;27.07;;;;;;;9.28;91.60;99134.75;1767534;81;21179;-60
2022/10/15 03:14:14;;;;;;;35.55;26.62;;;;;;;9.26;91.61;99135.28;1758583;81;21095;-61
2022/10/15 03:16:41;;;;;;;33.13;26.83;;;;;;;9.23;91.69;99132.83;1755086;80;21049;-61
2022/10/15 03:19:08;;;;;;;34.80;27.42;;;;;;;9.21;91.70;99130.29;1780569;80;20918;-61
2022/10/15 03:21:34;;;;;;;37.70;27.45;;;;;;;9.18;91.67;99128.68;1758054;81;21488;-61
2022/10/15 03:24:01;;;;;;;36.17;27.27;;;;;;;9.15;91.64;99135.35;1759715;79;20973;-60
2022/10/15 03:26:28;;;;;;;35.60;26.73;;;;;;;9.08;91.59;99126.18;1758708;80;21179;-60
2022/10/15 03:28:54;;;;;;;35.00;26.60;;;;;;;9.08;91.59;99126.18;1752348;81;21174;-61
2022/10/15 03:31:21;;;;;;;38.97;25.97;;;;;;;9.04;91.43;99119.43;1758281;80;21554;-61
2022/10/15 03:33:48;;;;;;;39.13;26.35;;;;;;;9.01;91.37;99123.95;1766503;80;21900;-60
2022/10/15 03:36:14;;;;;;;38.40;26.83;;;;;;;8.95;91.56;99110.78;1751991;80;20912;-60
2022/10/15 03:38:41;;;;;;;35.20;26.10;;;;;;;8.90;91.67;99116.68;1754987;81;21066;-60
2022/10/15 03:41:08;;;;;;;37.53;28.00;;;;;;;8.84;91.62;99110.48;1753280;81;21326;-60
2022/10/15 03:43:35;;;;;;;35.23;27.97;;;;;;;8.76;91.61;99099.61;1754693;79;20895;-61
2022/10/15 03:46:03;;;;;;;35.50;28.30;;;;;;;8.72;91.89;99097.16;1753487;79;21213;-60
2022/10/15 03:48:30;;;;;;;36.30;28.30;;;;;;;8.74;92.23;99104.91;1746119;80;21448;-60
2022/10/15 03:50:57;;;;;;;38.80;29.13;;;;;;;8.77;92.42;99100.01;1746521;81;21237;-60
2022/10/15 03:53:24;;;;;;;;;;;;;;;8.78;92.34;99096.48;1753851;81;20925;-61
2022/10/15 03:55:50;;;;;;;39.03;29.27;;;;;;;8.76;92.27;99087.89;1749853;81;20098;-61
2022/10/15 03:58:17;;;;;;;40.52;30.43;;;;;;;8.72;92.27;99090.66;1755385;80;20958;-61
2022/10/15 04:00:44;;;;;;;36.95;28.95;;;;;;;8.71;92.36;99095.92;1768004;78;20961;-60
2022/10/15 04:03:11;;;;;;;42.35;30.72;;;;;;;8.70;92.31;99087.27;1747953;80;21078;-60
2022/10/15 04:05:38;;;;;;;34.50;29.67;;;;;;;8.67;92.28;99079.63;1778612;80;20915;-60
2022/10/15 04:08:05;;;;;;;39.45;31.12;;;;;;;8.64;92.31;99075.88;1749855;81;21660;-61
2022/10/15 04:10:32;;;;;;;40.30;30.55;;;;;;;8.64;92.45;99079.78;1757674;81;21042;-60
2022/10/15 04:12:59;;;;;;;45.77;30.83;;;;;;;8.63;92.54;99079.41;1755192;79;20974;-61
2022/10/15 04:15:26;;;;;;;40.30;30.90;;;;;;;8.64;92.56;99082.38;1754374;81;21104;-60
2022/10/15 04:17:54;;;;;;;43.98;31.55;;;;;;;8.64;92.66;99075.88;1754283;81;20895;-60
2022/10/15 04:20:21;;;;;;;53.42;37.50;;;;;;;8.64;92.73;99070.67;1756297;81;20938;-60
2022/10/15 04:22:48;;;;;;;47.60;31.75;;;;;;;8.64;92.76;99071.97;1771912;80;20915;-60
2022/10/15 04:25:15;;;;;;;38.67;29.67;;;;;;;8.65;92.72;99071.04;1747719;81;20918;-60
2022/10/15 04:27:42;;;;;;;46.90;30.85;;;;;;;8.64;92.75;99056.36;1748985;81;21575;-61
2022/10/15 04:30:10;;;;;;;40.12;31.37;;;;;;;8.65;92.82;99059.33;1747709;81;21469;-61
2022/10/15 04:32:37;;;;;;;54.38;36.58;;;;;;;8.66;92.95;99057.13;1762230;79;20946;-60
2022/10/15 04:35:04;;;;;;;41.63;31.65;;;;;;;8.67;93.07;99056.20;1733730;81;20965;-61
2022/10/15 04:37:34;;;;;;;43.65;31.42;;;;;;;8.68;93.04;99047.49;1735771;81;20919;-60
2022/10/15 04:40:02;;;;;;;55.83;40.15;;;;;;;8.67;92.97;99056.20;1734042;82;20954;-61
2022/10/15 04:42:29;;;;;;;43.50;32.30;;;;;;;8.66;92.93;99049.33;1734853;81;21539;-61
2022/10/15 04:44:56;;;;;;;40.38;30.97;;;;;;;8.66;92.88;99042.81;1737215;82;21511;-61
2022/10/15 04:47:23;;;;;;;46.10;32.08;;;;;;;8.67;93.02;99053.59;1739261;82;21527;-60
2022/10/15 04:49:49;;;;;;;43.15;33.83;;;;;;;8.64;92.92;99047.71;1753805;80;20894;-60
2022/10/15 04:52:16;;;;;;;38.83;30.37;;;;;;;8.63;92.95;99042.97;1749116;81;21198;-60
2022/10/15 04:54:43;;;;;;;46.27;32.43;;;;;;;8.62;93.12;99041.27;1753728;80;20969;-60
2022/10/15 04:57:09;;;;;;;46.68;33.53;;;;;;;8.62;93.17;99034.77;1751418;80;21170;-60
2022/10/15 04:59:36;;;;;;;39.40;32.47;;;;;;;8.61;93.20;99039.59;1750879;80;21414;-60
2022/10/15 05:02:03;;;;;;;48.33;35.35;;;;;;;8.61;93.20;99038.30;1753918;81;20969;-60
2022/10/15 05:04:30;;;;;;;47.67;34.45;;;;;;;8.61;93.16;99031.79;1756389;80;21865;-60
2022/10/15 05:06:56;;;;;;;51.00;35.67;;;;;;;8.60;93.17;99040.95;1762802;80;20930;-60
2022/10/15 05:09:23;;;;;;;48.87;36.15;;;;;;;8.59;93.19;99031.02;1725886;81;20953;-60
2022/10/15 05:11:50;;;;;;;50.08;35.08;;;;;;;8.59;93.21;99034.08;1758336;80;21449;-61
2022/10/15 05:14:17;;;;;;;46.20;34.30;;;;;;;8.60;93.26;99028.81;1761622;80;21479;-60
2022/10/15 05:16:44;;;;;;;;;;;;;;;8.60;93.34;99015.80;1758806;80;21135;-61
2022/10/15 05:19:11;;;;;;;48.93;35.47;;;;;;;8.60;93.37;99026.22;1759250;80;20125;-60
2022/10/15 05:21:38;;;;;;;50.05;36.80;;;;;;;8.60;93.34;99027.52;1749806;81;20950;-60
2022/10/15 05:24:05;;;;;;;49.38;35.00;;;;;;;8.62;93.35;99031.33;1753588;80;20962;-60
2022/10/15 05:26:32;;;;;;;44.60;33.05;;;;;;;8.62;93.38;99030.02;1756945;80;21476;-61
2022/10/15 05:28:59;;;;;;;46.33;35.25;;;;;;;8.62;93.38;99030.86;1758688;80;21070;-60
2022/10/15 05:31:33;;;;;;;44.03;35.35;;;;;;;8.63;93.44;99031.27;1766027;80;20977;-60
2022/10/15 05:34:07;;;;;;;47.30;35.85;;;;;;;8.66;93.59;99028.50;1767439;80;21047;-60
2022/10/15 05:36:35;;;;;;;46.50;35.38;;;;;;;8.71;93.69;99035.63;1765846;81;21502;-61
2022/10/15 05:39:09;;;;;;;46.33;34.05;;;;;;;8.80;93.75;99033.48;1807627;79;20928;-60
2022/10/15 05:41:32;;;;;;;45.25;34.53;;;;;;;8.91;93.78;99029.86;1809735;78;21197;-61
2022/10/15 05:43:59;;;;;;;44.93;36.13;;;;;;;9.06;93.70;99036.03;1809707;78;21863;-60
2022/10/15 05:46:27;;;;;;;46.58;34.92;;;;;;;9.09;93.34;99032.80;1812878;78;20931;-60
2022/10/15 05:48:57;;;;;;;50.23;35.23;;;;;;;9.08;93.21;99036.34;1777002;78;20954;-60
2022/10/15 05:51:26;;;;;;;48.42;34.88;;;;;;;9.07;93.12;99038.54;1804451;78;21037;-60
2022/10/15 05:53:55;;;;;;;55.25;34.67;;;;;;;9.05;93.16;99037.80;1805288;78;21041;-60
2022/10/15 05:56:23;;;;;;;48.00;35.52;;;;;;;9.03;93.28;99031.82;1801361;78;20908;-61
2022/10/15 05:58:50;;;;;;;48.52;36.25;;;;;;;9.02;93.32;99031.45;1805968;78;20908;-62
2022/10/15 06:01:18;;;;;;;49.00;35.15;;;;;;;9.02;93.32;99027.55;1801806;78;20903;-60
2022/10/15 06:03:45;;;;;;;47.40;35.23;;;;;;;9.02;93.38;99024.94;1804820;78;20930;-60
2022/10/15 06:06:21;;;;;;;49.63;37.10;;;;;;;9.01;93.46;99024.54;1803019;78;21704;-60
2022/10/15 06:08:50;;;;;;;51.40;37.00;;;;;;;9.03;93.55;99025.78;1799567;78;37730;-60
2022/10/15 06:11:17;;;;;;;49.85;37.38;;;;;;;9.07;93.69;99030.73;1804119;78;20928;-61
2022/10/15 06:13:45;;;;;;;51.05;36.75;;;;;;;9.14;93.82;99026.89;1804160;78;20923;-61
2022/10/15 06:16:14;;;;;;;49.85;36.98;;;;;;;9.24;93.85;99027.70;1805149;78;20838;-60
2022/10/15 06:18:41;;;;;;;52.00;37.90;;;;;;;9.34;93.88;99025.00;1807605;78;21113;-63
2022/10/15 06:21:10;;;;;;;50.78;39.38;;;;;;;9.52;93.99;99034.45;1807203;78;21000;-63
2022/10/15 06:23:37;;;;;;;49.70;37.23;;;;;;;9.72;93.96;99032.50;1804197;78;21543;-63
2022/10/15 06:26:08;;;;;;;49.80;36.77;;;;;;;9.87;93.73;99031.67;1805235;78;21519;-62
2022/10/15 06:28:37;;;;;;;45.67;35.40;;;;;;;9.98;93.65;99026.70;1803520;78;21514;-62
2022/10/15 06:31:04;;;;;;;45.28;34.88;;;;;;;10.14;93.60;99029.73;1816005;78;21640;-62
2022/10/15 06:33:32;;;;;;;51.33;36.65;;;;;;;10.33;93.70;99029.11;1818779;78;21469;-62
2022/10/15 06:36:05;;;;;;;52.15;36.40;;;;;;;10.62;93.78;99031.83;1751021;81;20945;-62
2022/10/15 06:38:32;;;;;;;46.88;34.45;;;;;;;10.94;93.56;99033.36;1750855;80;21028;-63
2022/10/15 06:40:58;;;;;;;44.42;35.70;;;;;;;10.94;93.56;99033.36;1760336;81;20997;-63
2022/10/15 06:43:25;;;;;;;43.95;33.78;;;;;;;11.20;93.45;99036.16;1776493;80;21351;-62
2022/10/15 06:45:52;;;;;;;46.70;35.07;;;;;;;11.51;93.39;99035.16;1756003;81;20942;-63
2022/10/15 06:48:20;;;;;;;40.20;32.50;;;;;;;11.78;93.08;99037.80;1774718;80;21162;-61
2022/10/15 06:50:47;;;;;;;42.55;32.15;;;;;;;12.03;92.85;99038.89;1819410;78;20924;-60
2022/10/15 06:53:15;;;;;;;39.58;31.15;;;;;;;12.25;92.65;99039.19;1817671;77;20945;-60
2022/10/15 06:55:42;;;;;;;41.73;31.45;;;;;;;12.48;92.46;99040.77;1818599;77;21043;-61
2022/10/15 06:58:09;;;;;;;36.43;30.53;;;;;;;12.62;92.44;99039.38;1756673;81;20903;-61
2022/10/15 07:00:37;;;;;;;43.08;30.00;;;;;;;12.68;92.20;99039.44;1779310;80;20934;-61
2022/10/15 07:03:05;;;;;;;40.28;31.52;;;;;;;12.70;92.32;99039.70;1758868;80;20961;-61
2022/10/15 07:05:33;;;;;;;35.90;29.87;;;;;;;12.73;92.36;99046.05;1757283;81;21103;-61
2022/10/15 07:08:08;;;;;;;38.73;30.12;;;;;;;12.79;92.53;99053.14;1759320;80;21094;-60
2022/10/15 07:10:34;;;;;;;37.15;28.85;;;;;;;12.87;92.78;99042.98;1759211;80;21459;-60
2022/10/15 07:13:01;;;;;;;42.67;29.70;;;;;;;13.02;92.82;99057.66;1758426;81;20942;-60
2022/10/15 07:15:29;;;;;;;38.65;28.60;;;;;;;13.11;92.82;99051.80;1762506;80;20965;-61
2022/10/15 07:17:59;;;;;;;34.63;27.37;;;;;;;13.16;92.72;99047.09;1784877;79;20938;-61
2022/10/15 07:20:24;;;;;;;33.18;26.37;;;;;;;13.22;92.38;99051.08;1759687;81;21416;-62
2022/10/15 07:22:57;;;;;;;34.48;24.52;;;;;;;13.17;92.15;99051.38;1789355;80;20893;-63
2022/10/15 07:25:25;;;;;;;35.30;27.85;;;;;;;13.12;92.07;99058.71;1788442;79;20907;-62
2022/10/15 07:27:54;;;;;;;31.90;25.90;;;;;;;13.04;92.11;99054.47;1783252;80;20969;-61
2022/10/15 07:30:26;;;;;;;34.88;24.30;;;;;;;13.03;92.31;99053.27;1788090;80;21542;-62
2022/10/15 07:32:51;;;;;;;32.17;25.65;;;;;;;13.00;92.14;99049.08;1778872;80;21173;-61
2022/10/15 07:35:18;;;;;;;35.00;25.83;;;;;;;13.05;92.51;99045.68;1773635;80;20915;-63
2022/10/15 07:37:46;;;;;;;29.87;23.45;;;;;;;13.20;92.74;99037.23;1771670;80;21175;-62
2022/10/15 07:40:13;;;;;;;30.40;24.63;;;;;;;13.39;92.56;99036.83;1740004;81;21570;-61
2022/10/15 07:42:39;;;;;;;38.58;25.17;;;;;;;13.47;92.10;99041.07;1769884;80;21464;-63
2022/10/15 07:45:07;;;;;;;30.62;24.75;;;;;;;13.53;92.00;99036.70;1778180;80;21044;-62
2022/10/15 07:47:34;;;;;;;32.23;26.77;;;;;;;13.55;91.70;99037.41;1762247;80;20988;-62
2022/10/15 07:50:00;;;;;;;32.20;24.27;;;;;;;13.61;91.83;99037.00;1765692;80;20931;-60
2022/10/15 07:52:27;;;;;;;33.03;23.37;;;;;;;13.70;91.91;99029.42;1769475;80;20902;-63
2022/10/15 07:54:54;;;;;;;31.00;22.62;;;;;;;13.79;91.69;99027.45;1750660;81;21615;-64
2022/10/15 07:57:20;;;;;;;29.45;22.40;;;;;;;13.88;91.57;99039.91;1777841;79;21428;-62
2022/10/15 07:59:47;;;;;;;30.12;21.85;;;;;;;14.01;91.87;99031.52;1744537;81;20942;-64
2022/10/15 08:02:16;;;;;;;27.93;20.80;;;;;;;14.21;92.01;99029.23;1772937;79;20914;-63
2022/10/15 08:04:43;;;;;;;27.52;20.77;;;;;;;14.43;91.88;99026.70;1745627;81;21948;-63
2022/10/15 08:07:10;;;;;;;26.77;20.37;;;;;;;14.52;91.10;99026.03;1740617;81;20970;-64
2022/10/15 08:09:37;;;;;;;24.72;20.12;;;;;;;14.67;91.53;99013.53;1739870;81;21001;-63
2022/10/15 08:12:05;;;;;;;26.97;20.85;;;;;;;14.90;91.50;99014.44;1745050;81;21521;-64
2022/10/15 08:14:33;;;;;;;27.13;20.27;;;;;;;14.99;90.68;99015.04;1745125;80;20919;-62
2022/10/15 08:17:04;;;;;;;24.45;18.98;;;;;;;15.08;90.51;99016.60;1746785;80;20950;-63
2022/10/15 08:19:31;;;;;;;26.17;19.50;;;;;;;15.20;90.75;99015.64;1771776;79;20990;-65
2022/10/15 08:21:58;;;;;;;22.60;18.05;;;;;;;15.41;91.06;99011.34;1743451;81;21207;-64
2022/10/15 08:24:25;;;;;;;25.50;17.95;;;;;;;15.62;91.02;99018.50;1773165;80;20887;-62
2022/10/15 08:26:51;;;;;;;21.95;17.27;;;;;;;15.89;91.00;99009.75;1746512;80;20887;-63
2022/10/15 08:29:18;;;;;;;21.50;17.85;;;;;;;16.08;90.05;99016.17;1772990;80;20974;-62
2022/10/15 08:31:45;;;;;;;19.50;16.12;;;;;;;16.27;89.84;99015.03;1744830;81;21570;-62
2022/10/15 08:34:11;;;;;;;22.98;18.98;;;;;;;16.43;89.16;99017.70;1782432;79;21123;-64
2022/10/15 08:36:40;;;;;;;22.10;17.60;;;;;;;16.50;88.71;99012.30;1743875;80;20989;-63
2022/10/15 08:39:08;;;;;;;26.60;17.67;;;;;;;16.48;88.66;99015.53;1748194;79;21017;-64
2022/10/15 08:41:45;;;;;;;23.05;17.90;;;;;;;16.41;88.16;99016.98;1745110;81;20922;-63
2022/10/15 08:44:22;;;;;;;19.67;16.80;;;;;;;16.27;87.95;99012.39;1759940;81;20954;-63
2022/10/15 08:46:57;;;;;;;19.92;15.85;;;;;;;16.31;88.14;99013.80;1755940;81;22011;-63
2022/10/15 08:49:47;;;;;;;22.67;15.78;;;;;;;16.33;87.88;99018.47;1815454;78;21009;-66
2022/10/15 08:52:22;;;;;;;17.73;15.83;;;;;;;16.22;87.73;99018.52;1811892;78;21858;-63
2022/10/15 08:54:48;;;;;;;20.88;16.37;;;;;;;16.11;87.58;99011.97;1812340;78;20973;-63
2022/10/15 09:01:09;;;;;;;24.43;15.98;;;;;;;16.06;87.01;99011.50;1816508;77;21061;-63
2022/10/15 09:03:56;;;;;;;28.40;17.85;;;;;;;16.08;87.21;99017.48;1811979;78;20885;-63
2022/10/15 09:06:36;;;;;;;20.25;15.38;;;;;;;16.00;86.35;99021.22;1814459;78;20934;-63
2022/10/15 09:09:42;;;;;;;20.10;15.88;;;;;;;15.95;86.28;99016.80;1812139;77;20944;-64
2022/10/15 09:12:39;;;;;;;;;;;;;;;16.00;86.71;99017.27;1809869;78;20974;-64
2022/10/15 09:15:11;;;;;;;20.00;16.67;;;;;;;16.01;85.65;99011.86;1805764;78;21254;-63
2022/10/15 09:17:39;;;;;;;20.23;16.40;;;;;;;15.98;85.72;99015.23;1812904;78;20855;-63
2022/10/15 09:20:13;;;;;;;21.37;18.05;;;;;;;15.95;85.53;99024.70;1751711;80;20931;-63
2022/10/15 09:22:40;;;;;;;17.62;14.28;;;;;;;15.95;85.56;99015.48;1747123;81;21941;-63
2022/10/15 09:25:16;;;;;;;27.60;17.98;;;;;;;15.96;85.14;99017.98;1781363;79;20923;-64
2022/10/15 09:27:45;;;;;;;24.90;18.67;;;;;;;15.89;85.11;99017.65;1774857;78;21037;-64
2022/10/15 09:30:50;;;;;;;21.20;18.32;;;;;;;15.85;85.09;99020.63;1779255;80;20914;-63
2022/10/15 09:33:45;;;;;;;21.73;19.32;;;;;;;15.81;84.87;99025.32;1772735;79;20926;-65
2022/10/15 09:36:42;;;;;;;23.60;19.02;;;;;;;15.71;84.91;99019.13;1770023;79;20973;-61
2022/10/15 09:39:49;;;;;;;26.50;19.87;;;;;;;15.65;84.90;99020.88;1771501;78;20935;-62
2022/10/15 09:42:35;;;;;;;26.82;20.50;;;;;;;15.58;84.54;99024.97;1764857;79;22379;-62
2022/10/15 09:45:12;;;;;;;24.60;19.25;;;;;;;15.43;84.52;99022.59;1770567;78;27666;-62
2022/10/15 09:47:41;;;;;;;23.50;18.67;;;;;;;15.41;84.42;99021.88;1768442;79;20991;-62
2022/10/15 09:50:12;;;;;;;23.83;19.42;;;;;;;15.39;84.33;99031.67;1715948;81;20880;-62
2022/10/15 09:52:49;;;;;;;23.40;19.25;;;;;;;15.38;84.33;99020.80;1775029;80;20931;-61
2022/10/15 09:55:39;;;;;;;22.48;19.37;;;;;;;15.38;84.23;99019.48;1661309;85;21059;-62
2022/10/15 10:02:00;;;;;;;25.37;22.67;;;;;;;15.41;84.04;99020.55;1576047;89;21019;-60
2022/10/15 10:04:33;;;;;;;22.40;19.30;;;;;;;15.51;84.25;99013.25;1575387;89;21036;-63
2022/10/15 10:07:08;;;;;;;26.17;21.30;;;;;;;15.49;83.87;99016.02;1545663;91;20946;-62
2022/10/15 10:09:54;;;;;;;25.85;21.30;;;;;;;15.42;83.75;99018.27;1546453;91;21101;-62
2022/10/15 10:12:34;;;;;;;23.60;20.70;;;;;;;15.41;83.97;99011.34;1548084;91;20995;-61
2022/10/15 10:15:28;;;;;;;27.52;20.00;;;;;;;15.42;83.88;99018.27;1578142;89;20984;-62
2022/10/15 10:17:57;;;;;;;22.10;18.32;;;;;;;15.37;83.54;99025.69;1570323;88;21047;-63
2022/10/15 10:20:27;;;;;;;21.42;18.30;;;;;;;15.27;83.71;99023.43;1569350;89;20970;-62
2022/10/15 10:22:58;;;;;;;22.58;17.80;;;;;;;15.26;83.69;99020.91;1580465;88;22079;-62
2022/10/15 10:25:41;;;;;;;26.02;20.62;;;;;;;15.20;83.54;99024.36;1588297;88;21098;-62
2022/10/15 10:28:15;;;;;;;21.00;18.25;;;;;;;15.16;83.61;99024.73;1580163;88;21001;-63
2022/10/15 10:31:02;;;;;;;20.08;17.92;;;;;;;15.08;83.52;99028.44;1583449;89;21015;-62
2022/10/15 10:33:43;;;;;;;31.95;28.80;;;;;;;15.07;83.58;99018.85;1678633;83;20976;-62
2022/10/15 10:36:26;;;;;;;22.40;17.62;;;;;;;15.02;83.56;99024.97;1687359;83;21151;-62
2022/10/15 10:39:07;;;;;;;20.92;18.05;;;;;;;14.95;83.49;99026.73;1725185;78;20909;-62
2022/10/15 10:41:57;;;;;;;20.68;17.85;;;;;;;14.85;83.46;99028.40;1801934;78;20854;-62
2022/10/15 10:44:34;;;;;;;20.65;16.95;;;;;;;14.78;83.78;99024.55;1802992;78;21469;-62
2022/10/15 10:47:14;;;;;;;22.00;17.77;;;;;;;14.75;83.40;99023.47;1811017;78;20909;-62
2022/10/15 10:49:56;;;;;;;23.47;19.73;;;;;;;14.71;83.73;99019.41;1806152;77;21044;-61
2022/10/15 10:52:36;;;;;;;28.95;20.70;;;;;;;14.71;83.81;99029.92;1803701;78;20934;-62
2022/10/15 10:55:20;;;;;;;27.65;17.70;;;;;;;14.71;83.81;99024.67;1803510;77;20868;-62
2022/10/15 10:57:56;;;;;;;21.93;19.05;;;;;;;14.73;83.98;99028.00;1807605;77;20941;-62
2022/10/15 11:00:45;;;;;;;21.27;16.82;;;;;;;14.64;83.55;99028.70;1768844;79;20930;-62
2022/10/15 11:03:23;;;;;;;23.50;17.55;;;;;;;14.51;83.60;99032.22;1762732;81;21005;-62
2022/10/15 11:05:55;;;;;;;27.62;20.40;;;;;;;14.44;83.80;99034.92;1760059;81;21449;-62
2022/10/15 11:08:48;;;;;;;25.05;20.57;;;;;;;14.39;83.83;99038.36;1759816;81;20934;-62
2022/10/15 11:11:23;;;;;;;22.80;18.50;;;;;;;14.36;83.91;99035.97;1691803;84;20983;-64
2022/10/15 11:14:07;;;;;;;21.77;17.52;;;;;;;14.35;84.02;99031.67;1685189;83;21508;-63
2022/10/15 11:16:42;;;;;;;24.90;18.60;;;;;;;14.36;84.00;99028.09;1658707;85;20981;-62
2022/10/15 11:19:48;;;;;;;22.42;17.73;;;;;;;14.39;84.17;99025.23;1630852;87;20991;-61
2022/10/15 11:22:23;;;;;;;23.30;19.30;;;;;;;14.43;84.00;99021.45;1698826;83;20943;-63
2022/10/15 11:25:24;;;;;;;23.12;17.27;;;;;;;14.48;84.17;99018.45;1662757;85;20985;-63
2022/10/15 11:28:15;;;;;;;20.60;17.23;;;;;;;14.55;84.31;99015.30;1651036;85;21061;-62
2022/10/15 11:31:16;;;;;;;18.75;16.35;;;;;;;14.71;84.38;99010.22;1647854;85;21907;-62
2022/10/15 11:34:06;;;;;;;18.27;16.23;;;;;;;14.79;84.17;99009.16;1644540;86;20964;-62
2022/10/15 11:36:54;;;;;;;18.77;15.45;;;;;;;14.77;83.93;99005.80;1645230;85;21059;-62
2022/10/15 11:39:41;;;;;;;21.30;17.12;;;;;;;14.77;84.00;99005.80;1622832;87;20993;-62
2022/10/15 11:42:34;;;;;;;19.07;15.38;;;;;;;14.77;84.16;98997.92;1611257;87;21088;-62
2022/10/15 11:45:11;;;;;;;18.15;14.70;;;;;;;14.85;84.32;99006.06;1623685;87;21503;-63
2022/10/15 11:47:56;;;;;;;;;;;;;;;14.89;84.23;98999.60;1595304;87;21604;-63
2022/10/15 11:50:33;;;;;;;20.30;16.75;;;;;;;14.96;84.21;99002.13;1625465;86;20477;-64
2022/10/15 11:53:27;;;;;;;19.70;16.87;;;;;;;14.94;84.18;98997.47;1636810;85;21004;-62
2022/10/15 11:56:17;;;;;;;19.42;16.30;;;;;;;15.02;84.31;98997.36;1675079;84;21046;-62